sensor_id;sensor_type;location;lat;lon;timestamp;temperature;humidity
22192;DHT22;11261;52.456;10.850;2023-06-22T00:00:36;20.70;99.90
22192;DHT22;11261;52.456;10.850;2023-06-22T00:03:06;20.70;99.90
22192;DHT22;11261;52.456;10.850;2023-06-22T00:05:36;20.60;99.90
22192;DHT22;11261;52.456;10.850;2023-06-22T00:08:05;20.60;99.90
22192;DHT22;11261;52.456;10.850;2023-06-22T00:10:33;20.60;99.90
22192;DHT22;11261;52.456;10.850;2023-06-22T00:13:02;20.50;99.90
22192;DHT22;11261;52.456;10.850;2023-06-22T00:15:30;20.60;99.90
22192;DHT22;11261;52.456;10.850;2023-06-22T00:17:58;20.60;99.90
22192;DHT22;11261;52.456;10.850;2023-06-22T00:20:26;20.60;99.90
22192;DHT22;11261;52.456;10.850;2023-06-22T00:22:59;20.60;99.90
22192;DHT22;11261;52.456;10.850;2023-06-22T00:25:27;20.50;99.90
22192;DHT22;11261;52.456;10.850;2023-06-22T00:27:55;20.50;99.90
22192;DHT22;11261;52.456;10.850;2023-06-22T00:30:23;20.40;99.90
22192;DHT22;11261;52.456;10.850;2023-06-22T00:32:53;20.30;99.90
22192;DHT22;11261;52.456;10.850;2023-06-22T00:35:21;20.10;99.90
22192;DHT22;11261;52.456;10.850;2023-06-22T00:37:49;19.70;99.90
22192;DHT22;11261;52.456;10.850;2023-06-22T00:40:20;19.90;99.90
22192;DHT22;11261;52.456;10.850;2023-06-22T00:42:48;20.00;99.90
22192;DHT22;11261;52.456;10.850;2023-06-22T00:45:17;20.00;99.90
22192;DHT22;11261;52.456;10.850;2023-06-22T00:47:45;20.00;99.90
22192;DHT22;11261;52.456;10.850;2023-06-22T00:50:19;20.00;99.90
22192;DHT22;11261;52.456;10.850;2023-06-22T00:52:51;20.00;99.90
22192;DHT22;11261;52.456;10.850;2023-06-22T00:55:22;20.00;99.90
22192;DHT22;11261;52.456;10.850;2023-06-22T00:57:50;19.80;99.90
22192;DHT22;11261;52.456;10.850;2023-06-22T01:00:23;19.80;99.90
22192;DHT22;11261;52.456;10.850;2023-06-22T01:02:53;19.80;99.90
22192;DHT22;11261;52.456;10.850;2023-06-22T01:05:22;19.70;99.90
22192;DHT22;11261;52.456;10.850;2023-06-22T01:08:00;19.60;99.90
22192;DHT22;11261;52.456;10.850;2023-06-22T01:10:36;19.50;99.90
22192;DHT22;11261;52.456;10.850;2023-06-22T01:13:15;19.60;99.90
22192;DHT22;11261;52.456;10.850;2023-06-22T01:15:46;19.60;99.90
22192;DHT22;11261;52.456;10.850;2023-06-22T01:18:17;19.60;99.90
22192;DHT22;11261;52.456;10.850;2023-06-22T01:20:47;19.60;99.90
22192;DHT22;11261;52.456;10.850;2023-06-22T01:23:24;19.40;99.90
22192;DHT22;11261;52.456;10.850;2023-06-22T01:26:04;19.40;99.90
22192;DHT22;11261;52.456;10.850;2023-06-22T01:28:43;19.40;99.90
22192;DHT22;11261;52.456;10.850;2023-06-22T01:31:14;19.30;99.90
22192;DHT22;11261;52.456;10.850;2023-06-22T01:33:46;19.00;99.90
22192;DHT22;11261;52.456;10.850;2023-06-22T01:36:17;19.00;99.90
22192;DHT22;11261;52.456;10.850;2023-06-22T01:38:47;19.10;99.90
22192;DHT22;11261;52.456;10.850;2023-06-22T01:41:16;19.00;99.90
22192;DHT22;11261;52.456;10.850;2023-06-22T01:43:47;19.10;99.90
22192;DHT22;11261;52.456;10.850;2023-06-22T01:46:16;18.90;99.90
22192;DHT22;11261;52.456;10.850;2023-06-22T01:48:47;18.90;99.90
22192;DHT22;11261;52.456;10.850;2023-06-22T01:51:15;18.90;99.90
22192;DHT22;11261;52.456;10.850;2023-06-22T01:53:44;19.00;99.90
22192;DHT22;11261;52.456;10.850;2023-06-22T01:56:13;19.00;99.90
22192;DHT22;11261;52.456;10.850;2023-06-22T01:59:00;19.00;99.90
22192;DHT22;11261;52.456;10.850;2023-06-22T02:01:33;18.90;99.90
22192;DHT22;11261;52.456;10.850;2023-06-22T02:04:06;18.80;99.90
22192;DHT22;11261;52.456;10.850;2023-06-22T02:06:38;18.80;99.90
22192;DHT22;11261;52.456;10.850;2023-06-22T02:09:09;18.90;99.90
22192;DHT22;11261;52.456;10.850;2023-06-22T02:11:41;18.80;99.90
22192;DHT22;11261;52.456;10.850;2023-06-22T02:14:12;18.70;99.90
22192;DHT22;11261;52.456;10.850;2023-06-22T02:16:42;18.80;99.90
22192;DHT22;11261;52.456;10.850;2023-06-22T02:19:10;18.80;99.90
22192;DHT22;11261;52.456;10.850;2023-06-22T02:21:38;18.70;99.90
22192;DHT22;11261;52.456;10.850;2023-06-22T02:24:07;18.50;99.90
22192;DHT22;11261;52.456;10.850;2023-06-22T02:26:36;18.40;99.90
22192;DHT22;11261;52.456;10.850;2023-06-22T02:29:05;18.40;99.90
22192;DHT22;11261;52.456;10.850;2023-06-22T02:31:35;18.40;99.90
22192;DHT22;11261;52.456;10.850;2023-06-22T02:34:03;18.50;99.90
22192;DHT22;11261;52.456;10.850;2023-06-22T02:36:32;18.50;99.90
22192;DHT22;11261;52.456;10.850;2023-06-22T02:39:00;18.40;99.90
22192;DHT22;11261;52.456;10.850;2023-06-22T02:41:30;18.50;99.90
22192;DHT22;11261;52.456;10.850;2023-06-22T02:43:59;18.50;99.90
22192;DHT22;11261;52.456;10.850;2023-06-22T02:46:27;18.30;99.90
22192;DHT22;11261;52.456;10.850;2023-06-22T02:48:56;18.30;99.90
22192;DHT22;11261;52.456;10.850;2023-06-22T02:51:25;18.10;99.90
22192;DHT22;11261;52.456;10.850;2023-06-22T02:53:53;18.20;99.90
22192;DHT22;11261;52.456;10.850;2023-06-22T02:56:24;18.30;99.90
22192;DHT22;11261;52.456;10.850;2023-06-22T02:58:52;18.10;99.90
22192;DHT22;11261;52.456;10.850;2023-06-22T03:01:21;18.00;99.90
22192;DHT22;11261;52.456;10.850;2023-06-22T03:03:51;18.10;99.90
22192;DHT22;11261;52.456;10.850;2023-06-22T03:06:21;17.90;99.90
22192;DHT22;11261;52.456;10.850;2023-06-22T03:08:51;17.70;99.90
22192;DHT22;11261;52.456;10.850;2023-06-22T03:11:19;17.90;99.90
22192;DHT22;11261;52.456;10.850;2023-06-22T03:13:47;18.00;99.90
22192;DHT22;11261;52.456;10.850;2023-06-22T03:16:15;18.10;99.90
22192;DHT22;11261;52.456;10.850;2023-06-22T03:18:44;18.20;99.90
22192;DHT22;11261;52.456;10.850;2023-06-22T03:21:12;18.30;99.90
22192;DHT22;11261;52.456;10.850;2023-06-22T03:23:43;18.30;99.90
22192;DHT22;11261;52.456;10.850;2023-06-22T03:26:12;18.30;99.90
22192;DHT22;11261;52.456;10.850;2023-06-22T03:28:40;18.20;99.90
22192;DHT22;11261;52.456;10.850;2023-06-22T03:31:08;18.20;99.90
22192;DHT22;11261;52.456;10.850;2023-06-22T03:33:37;18.30;99.90
22192;DHT22;11261;52.456;10.850;2023-06-22T03:36:05;18.40;99.90
22192;DHT22;11261;52.456;10.850;2023-06-22T03:38:34;18.40;99.90
22192;DHT22;11261;52.456;10.850;2023-06-22T03:41:04;18.40;99.90
22192;DHT22;11261;52.456;10.850;2023-06-22T03:43:32;18.50;99.90
22192;DHT22;11261;52.456;10.850;2023-06-22T03:46:00;18.50;99.90
22192;DHT22;11261;52.456;10.850;2023-06-22T03:48:29;18.50;99.90
22192;DHT22;11261;52.456;10.850;2023-06-22T03:50:58;18.60;99.90
22192;DHT22;11261;52.456;10.850;2023-06-22T03:53:26;18.70;99.90
22192;DHT22;11261;52.456;10.850;2023-06-22T03:55:55;18.80;99.90
22192;DHT22;11261;52.456;10.850;2023-06-22T03:58:25;18.80;99.90
22192;DHT22;11261;52.456;10.850;2023-06-22T04:00:53;18.80;99.90
22192;DHT22;11261;52.456;10.850;2023-06-22T04:03:21;18.80;99.90
22192;DHT22;11261;52.456;10.850;2023-06-22T04:05:49;18.80;99.90
22192;DHT22;11261;52.456;10.850;2023-06-22T04:08:18;18.80;99.90
22192;DHT22;11261;52.456;10.850;2023-06-22T04:10:46;18.80;99.90
22192;DHT22;11261;52.456;10.850;2023-06-22T04:13:14;18.70;99.90
22192;DHT22;11261;52.456;10.850;2023-06-22T04:15:44;18.70;99.90
22192;DHT22;11261;52.456;10.850;2023-06-22T04:18:13;18.80;99.90
22192;DHT22;11261;52.456;10.850;2023-06-22T04:20:41;18.70;99.90
22192;DHT22;11261;52.456;10.850;2023-06-22T04:23:14;18.70;99.90
22192;DHT22;11261;52.456;10.850;2023-06-22T04:25:42;18.40;99.90
22192;DHT22;11261;52.456;10.850;2023-06-22T04:28:10;18.60;99.90
22192;DHT22;11261;52.456;10.850;2023-06-22T04:30:39;18.70;99.90
22192;DHT22;11261;52.456;10.850;2023-06-22T04:33:15;18.60;99.90
22192;DHT22;11261;52.456;10.850;2023-06-22T04:35:45;18.50;99.90
22192;DHT22;11261;52.456;10.850;2023-06-22T04:38:14;18.40;99.90
22192;DHT22;11261;52.456;10.850;2023-06-22T04:40:42;18.60;99.90
22192;DHT22;11261;52.456;10.850;2023-06-22T04:43:11;18.70;99.90
22192;DHT22;11261;52.456;10.850;2023-06-22T04:45:39;18.70;99.90
22192;DHT22;11261;52.456;10.850;2023-06-22T04:48:08;18.90;99.90
22192;DHT22;11261;52.456;10.850;2023-06-22T04:50:38;18.90;99.90
22192;DHT22;11261;52.456;10.850;2023-06-22T04:53:06;18.70;99.90
22192;DHT22;11261;52.456;10.850;2023-06-22T04:55:40;18.80;99.90
22192;DHT22;11261;52.456;10.850;2023-06-22T04:58:12;18.90;99.90
22192;DHT22;11261;52.456;10.850;2023-06-22T05:00:41;19.80;99.90
22192;DHT22;11261;52.456;10.850;2023-06-22T05:03:11;19.80;99.90
22192;DHT22;11261;52.456;10.850;2023-06-22T05:05:47;19.80;99.90
22192;DHT22;11261;52.456;10.850;2023-06-22T05:08:33;20.30;99.90
22192;DHT22;11261;52.456;10.850;2023-06-22T05:11:02;20.60;99.90
22192;DHT22;11261;52.456;10.850;2023-06-22T05:13:32;20.30;99.90
22192;DHT22;11261;52.456;10.850;2023-06-22T05:16:00;20.00;99.90
22192;DHT22;11261;52.456;10.850;2023-06-22T05:18:30;19.90;99.90
22192;DHT22;11261;52.456;10.850;2023-06-22T05:21:00;20.20;99.90
22192;DHT22;11261;52.456;10.850;2023-06-22T05:23:30;20.20;99.90
22192;DHT22;11261;52.456;10.850;2023-06-22T05:25:58;20.10;99.90
22192;DHT22;11261;52.456;10.850;2023-06-22T05:28:27;20.40;99.90
22192;DHT22;11261;52.456;10.850;2023-06-22T05:30:55;21.20;99.90
22192;DHT22;11261;52.456;10.850;2023-06-22T05:33:24;20.50;99.90
22192;DHT22;11261;52.456;10.850;2023-06-22T05:35:52;20.60;99.90
22192;DHT22;11261;52.456;10.850;2023-06-22T05:38:22;20.50;99.90
22192;DHT22;11261;52.456;10.850;2023-06-22T05:40:50;20.50;99.90
22192;DHT22;11261;52.456;10.850;2023-06-22T05:43:18;20.10;99.90
22192;DHT22;11261;52.456;10.850;2023-06-22T05:45:47;20.00;99.90
22192;DHT22;11261;52.456;10.850;2023-06-22T05:48:15;20.10;99.90
22192;DHT22;11261;52.456;10.850;2023-06-22T05:50:43;20.20;99.90
22192;DHT22;11261;52.456;10.850;2023-06-22T05:53:12;20.10;99.90
22192;DHT22;11261;52.456;10.850;2023-06-22T05:55:42;20.50;99.90
22192;DHT22;11261;52.456;10.850;2023-06-22T05:58:10;20.30;99.90
22192;DHT22;11261;52.456;10.850;2023-06-22T06:00:41;20.40;99.90
22192;DHT22;11261;52.456;10.850;2023-06-22T06:03:10;20.60;99.90
22192;DHT22;11261;52.456;10.850;2023-06-22T06:05:41;20.90;99.90
22192;DHT22;11261;52.456;10.850;2023-06-22T06:08:09;20.60;99.90
22192;DHT22;11261;52.456;10.850;2023-06-22T06:10:39;20.80;99.90
22192;DHT22;11261;52.456;10.850;2023-06-22T06:13:08;21.50;99.90
22192;DHT22;11261;52.456;10.850;2023-06-22T06:15:37;21.20;99.90
22192;DHT22;11261;52.456;10.850;2023-06-22T06:18:06;21.40;99.90
22192;DHT22;11261;52.456;10.850;2023-06-22T06:20:34;21.30;99.90
22192;DHT22;11261;52.456;10.850;2023-06-22T06:23:02;21.60;99.90
22192;DHT22;11261;52.456;10.850;2023-06-22T06:25:31;21.50;99.90
22192;DHT22;11261;52.456;10.850;2023-06-22T06:27:59;21.40;99.90
22192;DHT22;11261;52.456;10.850;2023-06-22T06:30:29;21.50;99.90
22192;DHT22;11261;52.456;10.850;2023-06-22T06:32:58;21.40;99.90
22192;DHT22;11261;52.456;10.850;2023-06-22T06:35:26;21.70;99.90
22192;DHT22;11261;52.456;10.850;2023-06-22T06:37:55;21.90;99.90
22192;DHT22;11261;52.456;10.850;2023-06-22T06:40:24;21.80;99.90
22192;DHT22;11261;52.456;10.850;2023-06-22T06:42:52;21.50;99.90
22192;DHT22;11261;52.456;10.850;2023-06-22T06:45:22;21.70;99.90
22192;DHT22;11261;52.456;10.850;2023-06-22T06:47:52;21.70;99.90
22192;DHT22;11261;52.456;10.850;2023-06-22T06:50:21;22.00;99.90
22192;DHT22;11261;52.456;10.850;2023-06-22T06:52:49;22.30;99.90
22192;DHT22;11261;52.456;10.850;2023-06-22T06:55:18;22.30;99.90
22192;DHT22;11261;52.456;10.850;2023-06-22T06:57:47;22.70;99.90
22192;DHT22;11261;52.456;10.850;2023-06-22T07:00:18;23.00;99.90
22192;DHT22;11261;52.456;10.850;2023-06-22T07:02:46;23.10;99.90
22192;DHT22;11261;52.456;10.850;2023-06-22T07:05:17;22.90;99.90
22192;DHT22;11261;52.456;10.850;2023-06-22T07:07:45;23.10;99.90
22192;DHT22;11261;52.456;10.850;2023-06-22T07:10:13;22.90;99.90
22192;DHT22;11261;52.456;10.850;2023-06-22T07:12:43;22.70;99.90
22192;DHT22;11261;52.456;10.850;2023-06-22T07:15:11;22.70;99.90
22192;DHT22;11261;52.456;10.850;2023-06-22T07:17:40;23.00;99.90
22192;DHT22;11261;52.456;10.850;2023-06-22T07:20:10;23.20;99.90
22192;DHT22;11261;52.456;10.850;2023-06-22T07:22:42;23.10;99.90
22192;DHT22;11261;52.456;10.850;2023-06-22T07:25:11;23.20;99.90
22192;DHT22;11261;52.456;10.850;2023-06-22T07:27:45;23.40;99.90
22192;DHT22;11261;52.456;10.850;2023-06-22T07:30:14;23.80;99.90
22192;DHT22;11261;52.456;10.850;2023-06-22T07:32:44;24.40;99.90
22192;DHT22;11261;52.456;10.850;2023-06-22T07:35:13;24.30;99.90
22192;DHT22;11261;52.456;10.850;2023-06-22T07:37:45;24.50;99.90
22192;DHT22;11261;52.456;10.850;2023-06-22T07:40:13;24.80;99.90
22192;DHT22;11261;52.456;10.850;2023-06-22T07:42:41;24.40;99.90
22192;DHT22;11261;52.456;10.850;2023-06-22T07:45:10;24.40;99.90
22192;DHT22;11261;52.456;10.850;2023-06-22T07:47:38;24.30;99.90
22192;DHT22;11261;52.456;10.850;2023-06-22T07:50:07;24.40;99.90
22192;DHT22;11261;52.456;10.850;2023-06-22T07:52:36;24.40;99.90
22192;DHT22;11261;52.456;10.850;2023-06-22T07:55:06;24.60;99.90
22192;DHT22;11261;52.456;10.850;2023-06-22T07:57:34;24.80;99.90
22192;DHT22;11261;52.456;10.850;2023-06-22T08:00:04;24.80;99.90
22192;DHT22;11261;52.456;10.850;2023-06-22T08:02:39;24.70;99.90
22192;DHT22;11261;52.456;10.850;2023-06-22T08:05:09;25.10;99.90
22192;DHT22;11261;52.456;10.850;2023-06-22T08:07:41;25.30;99.90
22192;DHT22;11261;52.456;10.850;2023-06-22T08:10:15;25.20;99.90
22192;DHT22;11261;52.456;10.850;2023-06-22T08:12:43;25.20;99.90
22192;DHT22;11261;52.456;10.850;2023-06-22T08:15:12;25.20;99.90
22192;DHT22;11261;52.456;10.850;2023-06-22T08:17:40;25.00;99.90
22192;DHT22;11261;52.456;10.850;2023-06-22T08:20:10;24.90;99.90
22192;DHT22;11261;52.456;10.850;2023-06-22T08:22:39;25.20;99.90
22192;DHT22;11261;52.456;10.850;2023-06-22T08:25:08;25.20;99.90
22192;DHT22;11261;52.456;10.850;2023-06-22T08:27:38;25.50;99.90
22192;DHT22;11261;52.456;10.850;2023-06-22T08:30:07;25.00;99.90
22192;DHT22;11261;52.456;10.850;2023-06-22T08:32:35;25.00;99.90
22192;DHT22;11261;52.456;10.850;2023-06-22T08:35:04;24.90;99.90
22192;DHT22;11261;52.456;10.850;2023-06-22T08:37:33;25.00;99.90
22192;DHT22;11261;52.456;10.850;2023-06-22T08:40:04;24.90;99.90
22192;DHT22;11261;52.456;10.850;2023-06-22T08:42:35;25.10;99.90
22192;DHT22;11261;52.456;10.850;2023-06-22T08:45:05;25.30;99.90
22192;DHT22;11261;52.456;10.850;2023-06-22T08:47:34;25.60;99.90
22192;DHT22;11261;52.456;10.850;2023-06-22T08:50:02;25.50;99.90
22192;DHT22;11261;52.456;10.850;2023-06-22T08:52:31;25.60;99.90
22192;DHT22;11261;52.456;10.850;2023-06-22T08:54:59;25.30;99.90
22192;DHT22;11261;52.456;10.850;2023-06-22T08:57:27;25.50;99.90
22192;DHT22;11261;52.456;10.850;2023-06-22T08:59:57;25.90;99.90
22192;DHT22;11261;52.456;10.850;2023-06-22T09:02:27;25.70;99.90
22192;DHT22;11261;52.456;10.850;2023-06-22T09:04:58;25.60;99.90
22192;DHT22;11261;52.456;10.850;2023-06-22T09:07:27;25.80;99.90
22192;DHT22;11261;52.456;10.850;2023-06-22T09:09:56;25.60;99.90
22192;DHT22;11261;52.456;10.850;2023-06-22T09:12:27;25.90;99.90
22192;DHT22;11261;52.456;10.850;2023-06-22T09:14:57;25.90;99.90
22192;DHT22;11261;52.456;10.850;2023-06-22T09:17:28;25.70;99.90
22192;DHT22;11261;52.456;10.850;2023-06-22T09:19:56;25.70;99.90
22192;DHT22;11261;52.456;10.850;2023-06-22T09:22:25;25.90;99.90
22192;DHT22;11261;52.456;10.850;2023-06-22T09:24:56;26.60;99.90
22192;DHT22;11261;52.456;10.850;2023-06-22T09:27:25;25.90;99.90
22192;DHT22;11261;52.456;10.850;2023-06-22T09:29:53;25.90;99.90
22192;DHT22;11261;52.456;10.850;2023-06-22T09:32:21;26.00;99.90
22192;DHT22;11261;52.456;10.850;2023-06-22T09:34:51;25.80;99.90
22192;DHT22;11261;52.456;10.850;2023-06-22T09:37:20;26.00;99.90
22192;DHT22;11261;52.456;10.850;2023-06-22T09:39:48;26.50;99.90
22192;DHT22;11261;52.456;10.850;2023-06-22T09:42:16;26.30;99.90
22192;DHT22;11261;52.456;10.850;2023-06-22T09:44:45;26.30;99.90
22192;DHT22;11261;52.456;10.850;2023-06-22T09:47:13;26.40;99.90
22192;DHT22;11261;52.456;10.850;2023-06-22T09:49:41;26.40;99.90
22192;DHT22;11261;52.456;10.850;2023-06-22T09:52:15;26.40;99.90
22192;DHT22;11261;52.456;10.850;2023-06-22T09:54:44;26.60;99.90
22192;DHT22;11261;52.456;10.850;2023-06-22T09:57:13;26.50;99.90
22192;DHT22;11261;52.456;10.850;2023-06-22T09:59:41;26.80;99.90
22192;DHT22;11261;52.456;10.850;2023-06-22T10:02:09;27.30;99.90
22192;DHT22;11261;52.456;10.850;2023-06-22T10:04:38;27.10;99.90
22192;DHT22;11261;52.456;10.850;2023-06-22T10:07:07;27.30;99.90
22192;DHT22;11261;52.456;10.850;2023-06-22T10:09:37;27.70;99.90
22192;DHT22;11261;52.456;10.850;2023-06-22T10:12:06;27.50;99.90
22192;DHT22;11261;52.456;10.850;2023-06-22T10:14:35;27.20;99.90
22192;DHT22;11261;52.456;10.850;2023-06-22T10:17:03;27.50;99.90
22192;DHT22;11261;52.456;10.850;2023-06-22T10:19:34;27.30;99.90
22192;DHT22;11261;52.456;10.850;2023-06-22T10:22:05;27.40;99.90
22192;DHT22;11261;52.456;10.850;2023-06-22T10:24:33;27.50;99.90
22192;DHT22;11261;52.456;10.850;2023-06-22T10:27:03;27.50;99.90
22192;DHT22;11261;52.456;10.850;2023-06-22T10:29:31;27.30;99.90
22192;DHT22;11261;52.456;10.850;2023-06-22T10:31:59;28.00;99.90
22192;DHT22;11261;52.456;10.850;2023-06-22T10:34:28;27.70;99.90
22192;DHT22;11261;52.456;10.850;2023-06-22T10:36:56;27.30;99.90
22192;DHT22;11261;52.456;10.850;2023-06-22T10:39:24;27.70;99.90
22192;DHT22;11261;52.456;10.850;2023-06-22T10:41:52;28.00;99.90
22192;DHT22;11261;52.456;10.850;2023-06-22T10:44:22;27.40;99.90
22192;DHT22;11261;52.456;10.850;2023-06-22T10:46:50;27.70;99.90
22192;DHT22;11261;52.456;10.850;2023-06-22T10:49:18;28.30;99.90
22192;DHT22;11261;52.456;10.850;2023-06-22T10:51:46;28.10;99.90
22192;DHT22;11261;52.456;10.850;2023-06-22T10:54:15;28.10;99.90
22192;DHT22;11261;52.456;10.850;2023-06-22T10:56:45;28.60;99.90
22192;DHT22;11261;52.456;10.850;2023-06-22T10:59:13;28.40;99.90
22192;DHT22;11261;52.456;10.850;2023-06-22T11:01:43;29.00;99.90
22192;DHT22;11261;52.456;10.850;2023-06-22T11:04:11;29.10;99.90
22192;DHT22;11261;52.456;10.850;2023-06-22T11:06:39;28.90;99.90
22192;DHT22;11261;52.456;10.850;2023-06-22T11:09:07;28.50;99.90
22192;DHT22;11261;52.456;10.850;2023-06-22T11:11:51;28.50;99.90
22192;DHT22;11261;52.456;10.850;2023-06-22T11:14:21;28.50;99.90
22192;DHT22;11261;52.456;10.850;2023-06-22T11:16:51;28.20;99.90
22192;DHT22;11261;52.456;10.850;2023-06-22T11:19:19;27.90;99.90
22192;DHT22;11261;52.456;10.850;2023-06-22T11:21:47;27.70;99.90
22192;DHT22;11261;52.456;10.850;2023-06-22T11:24:16;27.70;99.90
22192;DHT22;11261;52.456;10.850;2023-06-22T11:26:44;27.60;99.90
22192;DHT22;11261;52.456;10.850;2023-06-22T11:29:13;27.40;99.90
22192;DHT22;11261;52.456;10.850;2023-06-22T11:32:02;27.60;99.90
22192;DHT22;11261;52.456;10.850;2023-06-22T11:34:31;27.30;99.90
22192;DHT22;11261;52.456;10.850;2023-06-22T11:36:59;27.40;99.90
22192;DHT22;11261;52.456;10.850;2023-06-22T11:39:28;27.80;99.90
22192;DHT22;11261;52.456;10.850;2023-06-22T11:42:08;28.20;99.90
22192;DHT22;11261;52.456;10.850;2023-06-22T11:44:37;27.60;99.90
22192;DHT22;11261;52.456;10.850;2023-06-22T11:47:07;27.40;99.90
22192;DHT22;11261;52.456;10.850;2023-06-22T11:49:35;27.80;99.90
22192;DHT22;11261;52.456;10.850;2023-06-22T11:52:04;27.70;99.90
22192;DHT22;11261;52.456;10.850;2023-06-22T11:54:32;28.30;99.90
22192;DHT22;11261;52.456;10.850;2023-06-22T11:57:00;28.70;99.90
22192;DHT22;11261;52.456;10.850;2023-06-22T11:59:28;28.40;99.90
22192;DHT22;11261;52.456;10.850;2023-06-22T12:01:57;27.90;99.90
22192;DHT22;11261;52.456;10.850;2023-06-22T12:04:27;28.10;99.90
22192;DHT22;11261;52.456;10.850;2023-06-22T12:06:55;28.30;99.90
22192;DHT22;11261;52.456;10.850;2023-06-22T12:09:25;28.50;99.60
22192;DHT22;11261;52.456;10.850;2023-06-22T12:11:53;28.70;99.90
22192;DHT22;11261;52.456;10.850;2023-06-22T12:14:22;29.30;99.80
22192;DHT22;11261;52.456;10.850;2023-06-22T12:16:50;29.30;97.80
22192;DHT22;11261;52.456;10.850;2023-06-22T12:19:19;28.50;99.30
22192;DHT22;11261;52.456;10.850;2023-06-22T12:21:48;28.30;99.70
22192;DHT22;11261;52.456;10.850;2023-06-22T12:24:16;29.40;99.40
22192;DHT22;11261;52.456;10.850;2023-06-22T12:26:45;29.50;97.70
22192;DHT22;11261;52.456;10.850;2023-06-22T12:29:13;29.70;97.90
22192;DHT22;11261;52.456;10.850;2023-06-22T12:31:41;28.80;97.50
22192;DHT22;11261;52.456;10.850;2023-06-22T12:34:10;28.60;98.80
22192;DHT22;11261;52.456;10.850;2023-06-22T12:36:38;28.90;99.90
22192;DHT22;11261;52.456;10.850;2023-06-22T12:39:08;28.40;99.90
22192;DHT22;11261;52.456;10.850;2023-06-22T12:41:36;29.30;99.90
22192;DHT22;11261;52.456;10.850;2023-06-22T12:44:05;29.50;99.80
22192;DHT22;11261;52.456;10.850;2023-06-22T12:46:33;29.90;99.90
22192;DHT22;11261;52.456;10.850;2023-06-22T12:49:04;31.60;95.90
22192;DHT22;11261;52.456;10.850;2023-06-22T12:51:33;30.60;96.80
22192;DHT22;11261;52.456;10.850;2023-06-22T12:54:02;30.30;97.40
22192;DHT22;11261;52.456;10.850;2023-06-22T12:56:31;30.90;96.10
22192;DHT22;11261;52.456;10.850;2023-06-22T12:59:00;30.70;95.90
22192;DHT22;11261;52.456;10.850;2023-06-22T13:01:29;30.70;95.00
22192;DHT22;11261;52.456;10.850;2023-06-22T13:03:59;29.80;97.50
22192;DHT22;11261;52.456;10.850;2023-06-22T13:06:27;30.90;96.40
22192;DHT22;11261;52.456;10.850;2023-06-22T13:08:55;30.60;95.70
22192;DHT22;11261;52.456;10.850;2023-06-22T13:11:45;30.30;97.00
22192;DHT22;11261;52.456;10.850;2023-06-22T13:14:13;29.60;97.30
22192;DHT22;11261;52.456;10.850;2023-06-22T13:16:43;28.00;99.90
22192;DHT22;11261;52.456;10.850;2023-06-22T13:19:11;28.90;98.60
22192;DHT22;11261;52.456;10.850;2023-06-22T13:21:40;28.70;99.90
22192;DHT22;11261;52.456;10.850;2023-06-22T13:24:09;29.30;98.80
22192;DHT22;11261;52.456;10.850;2023-06-22T13:26:37;29.50;98.90
22192;DHT22;11261;52.456;10.850;2023-06-22T13:29:06;29.90;98.20
22192;DHT22;11261;52.456;10.850;2023-06-22T13:31:35;29.00;98.60
22192;DHT22;11261;52.456;10.850;2023-06-22T13:34:03;28.50;99.80
22192;DHT22;11261;52.456;10.850;2023-06-22T13:36:32;28.20;99.80
22192;DHT22;11261;52.456;10.850;2023-06-22T13:39:00;28.80;98.80
22192;DHT22;11261;52.456;10.850;2023-06-22T13:41:28;28.60;99.90
22192;DHT22;11261;52.456;10.850;2023-06-22T13:43:57;28.70;99.80
22192;DHT22;11261;52.456;10.850;2023-06-22T13:46:26;29.50;98.40
22192;DHT22;11261;52.456;10.850;2023-06-22T13:48:55;28.90;99.10
22192;DHT22;11261;52.456;10.850;2023-06-22T13:51:23;27.80;99.90
22192;DHT22;11261;52.456;10.850;2023-06-22T13:53:51;27.90;99.90
22192;DHT22;11261;52.456;10.850;2023-06-22T13:56:20;28.10;99.90
22192;DHT22;11261;52.456;10.850;2023-06-22T13:58:48;28.60;99.70
22192;DHT22;11261;52.456;10.850;2023-06-22T14:01:17;27.90;99.80
22192;DHT22;11261;52.456;10.850;2023-06-22T14:03:48;28.10;99.90
22192;DHT22;11261;52.456;10.850;2023-06-22T14:06:16;27.70;99.90
22192;DHT22;11261;52.456;10.850;2023-06-22T14:08:45;28.50;99.90
22192;DHT22;11261;52.456;10.850;2023-06-22T14:11:13;28.90;99.20
22192;DHT22;11261;52.456;10.850;2023-06-22T14:13:42;28.50;99.50
22192;DHT22;11261;52.456;10.850;2023-06-22T14:16:10;28.20;99.90
22192;DHT22;11261;52.456;10.850;2023-06-22T14:18:38;28.50;99.90
22192;DHT22;11261;52.456;10.850;2023-06-22T14:21:08;28.40;99.50
22192;DHT22;11261;52.456;10.850;2023-06-22T14:23:36;28.50;99.90
22192;DHT22;11261;52.456;10.850;2023-06-22T14:26:05;28.20;99.90
22192;DHT22;11261;52.456;10.850;2023-06-22T14:28:33;28.90;98.80
22192;DHT22;11261;52.456;10.850;2023-06-22T14:31:02;28.70;99.20
22192;DHT22;11261;52.456;10.850;2023-06-22T14:33:30;28.70;99.50
22192;DHT22;11261;52.456;10.850;2023-06-22T14:35:58;28.40;99.70
22192;DHT22;11261;52.456;10.850;2023-06-22T14:38:28;27.70;99.90
22192;DHT22;11261;52.456;10.850;2023-06-22T14:40:56;28.10;99.90
22192;DHT22;11261;52.456;10.850;2023-06-22T14:43:44;29.00;99.00
22192;DHT22;11261;52.456;10.850;2023-06-22T14:46:13;29.30;98.90
22192;DHT22;11261;52.456;10.850;2023-06-22T14:48:42;28.80;99.70
22192;DHT22;11261;52.456;10.850;2023-06-22T14:51:11;28.90;99.60
22192;DHT22;11261;52.456;10.850;2023-06-22T14:53:45;29.50;98.00
22192;DHT22;11261;52.456;10.850;2023-06-22T14:56:14;28.90;98.80
22192;DHT22;11261;52.456;10.850;2023-06-22T14:58:43;29.20;98.80
22192;DHT22;11261;52.456;10.850;2023-06-22T15:01:13;28.80;99.00
22192;DHT22;11261;52.456;10.850;2023-06-22T15:03:41;28.30;99.60
22192;DHT22;11261;52.456;10.850;2023-06-22T15:06:10;28.30;99.90
22192;DHT22;11261;52.456;10.850;2023-06-22T15:08:38;28.20;99.90
22192;DHT22;11261;52.456;10.850;2023-06-22T15:11:09;28.10;99.90
22192;DHT22;11261;52.456;10.850;2023-06-22T15:13:39;28.50;99.90
22192;DHT22;11261;52.456;10.850;2023-06-22T15:16:08;28.20;99.60
22192;DHT22;11261;52.456;10.850;2023-06-22T15:18:37;28.20;99.80
22192;DHT22;11261;52.456;10.850;2023-06-22T15:21:08;27.80;99.90
22192;DHT22;11261;52.456;10.850;2023-06-22T15:23:36;28.20;99.70
22192;DHT22;11261;52.456;10.850;2023-06-22T15:26:04;28.40;99.40
22192;DHT22;11261;52.456;10.850;2023-06-22T15:28:35;28.50;99.30